Strona główna
METAR-TAF:

METAR-TAF

Lotnisko :

Mendoza, Argentyna

Port lotniczy Mendoza

Szerokość geograficzna: 32-50S, Długość geograficzna: 068-47W, wysokość: 705 m

Aktualna obserwacja pogody

Raport powstał 55 minut temu, godzina 07:00 UTC
Wiatr 14 kt od południowy wschód w porywach dochodzący do 24 kt
Temperatura 19°C
Wilgotność 73%
Ciśnienie 1015 hPa
Widzialność 10 km lub więcej
Rozproszone chmury na wysokości 4500 ft
Rozproszone chmury na wysokości 5000 ft

METAR: SAME 160700Z 14014G24KT 9999 SCT045 SCT050 19/14 Q1015

czas: 04:55 (07:55 UTC)

Prognoza

Raport powstał 2 godziny i 55 minut temu, godzina 05:00 UTC
Prognoza ważna od 16 godzina 06 UTC do 17 godzina 06 UTC
Wiatr 5 kt od południowy wschód
Widzialność 10 km lub więcej
Rozproszone chmury na wysokości 4000 ft

TAF: SAME 160500Z 1606/1706 14005KT 9999 SCT040 TX29/1620Z TN18/1610Z

Obserwacja i prognoza pogody dla ponad 4000 lotnisk (raport METAR i TAF).

Dostępne stacje oznaczono żółtymi i czerwonymi punktami na mapie.

Najedź kursorem aby zobaczyć nazwę stacji.

Kliknij aby zobaczyć obserwacje i prognozy pogody.

Aby zmienić mapę: kliknij na zielony przycisk z czarnym krzyżykiem, aby powiększyć; na zielony przycisk z myślnikiem, aby pomniejszyć; na zielone strzałki, aby przejść do map sąsiednich.


METAR-TAF: